Denver, CO (80214)

6:31 AM MDT on March 24, 2017 (GMT -0600)
Edgewater | | Change Station
Active Advisory: Winter Weather Statement Active Notice: Public Information Statement

Elev 5344 ft 39.75 °N, 105.05 °W | Updated 2 minutes ago

Rain
Rain
38.7 °F
Feels Like 31 °F
N
13.0
Wind Variable Wind from ENE

Today
High -- | Low -- °F
--% Chance of Precip.
Yesterday
High -- | Low -- °F
Precip. -- in
Pressure 29.97 in
Visibility 10.0 miles
Clouds Mostly Cloudy 3200 ft
Mostly Cloudy 3800 ft
Overcast 4400 ft
Windchill 31 °F
Dew Point 36 °F
Humidity 90%
Rainfall 0.32 in
Snow Depth Not available.
6:56 AM 7:16 PM
Waning Crescent, 15% visible
METAR KBJC 241154Z AUTO 35019G30KT 10SM BKN032 BKN038 OVC044 03/01 A2997 RMK AO2
Pressure 29.97 in
Visibility 10.0 miles
Clouds Mostly Cloudy 3200 ft
Mostly Cloudy 3800 ft
Overcast 4400 ft
Windchill 31 °F
Dew Point 36 °F
Humidity 90%
Rainfall 0.32 in
Snow Depth Not available.
6:56 AM 7:16 PM
Waning Crescent, 15% visible
METAR KBJC 241154Z AUTO 35019G30KT 10SM BKN032 BKN038 OVC044 03/01 A2997 RMK AO2

Get Your Daily Forecast Email!

Thanks for signing up!

Be on the lookout for a verification email in your inbox.

You'll start receiving severe weather alerts in your inbox..

×

10-Day Weather Forecast

Almanac

Astronomy

Mar. 24, 2017 Rise Set
Actual Time
Civil Twilight
Nautical Twilight
Astronomical Twilight
Moon
Length of Visible Light
Length of Day
Tomorrow will be .
, % of the Moon is Illuminated

Today's Extremes

State Highs State Lows

Community

WunderPhotos

Upload Photos

1,962,540 photos uploaded!

WunderBlog® & News

Nearby

Air Quality

  Air Quality AQ Index Pollutant
Not available.

Snow Depth

Station Depth Elevation

Earthquake Activity

City Distance Mag. Time & Date
Minimum magnitude displayed is 2.5.

Earthquake Activity

City Distance Mag. Time & Date
Minimum magnitude displayed is 2.5.

Coastal Water Temperatures

Place Temperature

Stations

Nearby Weather Stations

Station Location Temp. Windchill Dew Point Humidity Wind Precip. Elev Updated Type
                   

Watches & Warnings

Winter Weather Statement
Issued: 6:23 AM MDT Mar. 24, 2017 – National Weather Service

... Winter Weather Advisory is cancelled...

The National Weather Service in Denver has cancelled the Winter
Weather Advisory.

The storm has shifted to the south and east with decreasing
snowfall over the advisory area. Heavy snowfall is no longer
expected.